EFMA

Mariehamn Airport

Finland
TAF AMD EFMA 221626Z 2216/2224 23006KT 9999 BKN040 TEMPO 2216/2221 BKN020CB BECMG 2222/2224 30010KT
Issued Valid From Valid To
Jun-22 @ 16:26 UTC
(45 minutes ago)
Jun-22 @ 16:00 UTC
(an hour ago)
Jun-23 @ 00:00 UTC
(in 7 hours)
Jun-22 @ 16:00 to Jun-22 @ 22:00
TAF AMD EFMA 221626Z 2216/2224 23006KT 9999 BKN040
Wind Visibility Clouds
230° at 6 knots 10,000+ meters
  • Broken at 4,000' AGL
Temporary Jun-22 @ 16:00 to Jun-22 @ 21:00
TEMPO 2216/2221 BKN020CB
Clouds
  • Broken at 2,000' AGL
Becoming Jun-22 @ 22:00 to Jun-23 @ 00:00
BECMG 2222/2224 30010KT
Wind Visibility Clouds
300° at 10 knots 10,000+ meters
  • Broken at 4,000' AGL
TAF AMD EFMA 221626Z 2216/2224 23006KT 9999 BKN040 TEMPO 2216/2221 BKN020CB BECMG 2222/2224 30010KT
Issued Jun-22 @ 16:26 UTC
(45 minutes ago)
Valid From Jun-22 @ 16:00 UTC
(an hour ago)
Valid To Jun-23 @ 00:00 UTC
(in 7 hours)
Jun-22 @ 16:00 - Jun-22 @ 22:00
Wind Visibility
230° at 6 knots 10,000+ meters
Clouds
  • Broken at 4,000' AGL
Temporary Jun-22 @ 16:00 - Jun-22 @ 21:00
Clouds
  • Broken at 2,000' AGL
Becoming Jun-22 @ 22:00 - Jun-23 @ 00:00
Wind Visibility
300° at 10 knots 10,000+ meters
Clouds
  • Broken at 4,000' AGL